DW2213 Weather Reports


Display with metric or nautical units.
time (UTC)temp
F
wind
direction
speed
MPH
gust
MPH
rain 1hr
in
rain 24hr
in
rain mn
in
humidity
%
barometer
mb
20220705083807 81 32 6.0 12.0 0.00 0.00 0.00 77 1016.7
20220705080307 81 30 6.0 12.0 0.00 0.00 0.00 80 1016.5
20220705074307 80 24 6.0 12.0 0.00 0.00 0.00 84 1016.5
20220705073807 79 36 5.0 10.0 0.00 0.00 0.00 85 1016.6
20220705072807 79 35 5.0 12.0 0.00 0.00 0.00 86 1016.5
20220705072306 78 48 1.0 5.0 0.00 0.00 0.00 87 1016.5
20220705071306 78 54 3.0 6.0 0.00 0.00 0.00 87 1016.4
20220705070306 78 60 5.0 12.0 0.00 0.00 0.00 87 1016.2
20220705064806 78 33 4.0 10.0 0.00 0.00 0.00 89 1016.1
20220705064307 78 21 5.0 9.0 0.00 0.00 0.00 89 1016.2
20220705063807 77 51 3.0 6.0 0.00 0.00 0.00 89 1016.2
20220705063307 77 18 3.0 7.0 0.00 0.00 0.00 89 1016.3
20220705062807 77 23 4.0 8.0 0.00 0.00 0.00 89 1016.3
20220705062306 77 40 3.0 7.0 0.00 0.00 0.00 89 1016.3
20220705061806 77 34 4.0 7.0 0.00 0.00 0.00 89 1016.2
20220705060807 77 24 3.0 5.0 0.00 0.00 0.00 89 1016.1
20220705054807 77 2 3.0 6.0 0.00 0.00 0.00 89 1015.8
20220705054307 77 24 2.0 3.0 0.00 0.00 0.00 89 1015.8
20220705053806 77 19 2.0 6.0 0.00 0.00 0.00 89 1015.6
20220705052307 77 331 2.0 3.0 0.00 0.00 0.00 89 1015.7
20220705045307 77 317 2.0 3.0 0.00 0.00 0.00 89 1015.4
20220705044807 77 336 1.0 3.0 0.00 0.00 0.00 89 1015.4
20220705043807 77 334 3.0 7.0 0.00 0.00 0.00 89 1015.3
20220705041307 77 330 1.0 3.0 0.00 0.00 0.00 89 1015.0
20220705040806 77 330 2.0 3.0 0.00 0.00 0.00 89 1014.9
20220705035806 77 329 1.0 3.0 0.00 0.00 0.00 89 1014.8
20220705033807 77 275 2.0 3.0 0.00 0.00 0.00 88 1014.9
20220705032807 77 216 2.0 3.0 0.00 0.00 0.00 88 1014.8
20220705032306 77 196 1.0 3.0 0.00 0.00 0.00 88 1014.9
20220705031806 77 195 2.0 3.0 0.00 0.00 0.00 88 1014.9
20220705030307 77 143 1.0 2.0 0.00 0.00 0.00 88 1014.8
20220705025307 77 143 0.0 2.0 0.00 0.00 0.00 87 1015.0
20220705024306 78 143 0.0 1.0 0.00 0.00 0.00 87 1014.9
20220705023306 78 143 1.0 3.0 0.00 0.00 0.00 87 1014.8
20220705022806 78 143 2.0 5.0 0.00 0.00 0.00 87 1014.7
20220705021306 78 143 2.0 3.0 0.00 0.00 0.00 87 1014.9
20220705020306 78 142 2.0 3.0 0.00 0.00 0.00 87 1015.0
20220705014306 78 142 0.0 0.0 0.00 0.00 0.00 86 1015.0
20220705013307 78 142 0.0 2.0 0.00 0.00 0.00 86 1014.7
20220705011807 78 142 1.0 2.0 0.00 0.00 0.00 86 1014.7
20220705011306 78 143 1.0 3.0 0.00 0.00 0.00 86 1014.7
20220705010306 78 143 0.0 2.0 0.00 0.00 0.00 85 1014.8
20220705005806 78 143 0.0 1.0 0.00 0.00 0.00 85 1014.8
20220705003806 78 143 1.0 3.0 0.00 0.00 0.00 85 1014.9
20220705002306 78 143 1.0 3.0 0.00 0.00 0.00 85 1015.0
20220705001306 78 143 0.0 1.0 0.00 0.00 0.00 84 1015.0
20220705000805 78 143 1.0 2.0 0.00 0.00 0.00 84 1015.1
20220704235806 79 143 0.0 0.0 0.00 0.00 0.00 84 1014.8
20220704235305 79 143 0.0 1.0 0.00 0.00 0.00 84 1015.0
20220704232805 79 143 0.0 5.0 0.00 0.00 0.00 84 1015.1
20220704232306 79 142 2.0 5.0 0.00 0.00 0.00 84 1015.2
20220704231806 79 142 2.0 5.0 0.00 0.00 0.00 84 1015.2
20220704231306 79 142 3.0 6.0 0.00 0.00 0.00 84 1015.1
20220704230806 79 142 1.0 3.0 0.00 0.00 0.00 84 1015.0
20220704225806 79 143 2.0 5.0 0.00 0.00 0.00 83 1015.1
20220704224806 79 143 2.0 3.0 0.00 0.00 0.00 83 1015.0
20220704223306 80 143 3.0 5.0 0.00 0.00 0.00 83 1014.9
20220704222306 80 143 0.0 3.0 0.00 0.00 0.00 83 1014.7
20220704221806 80 143 2.0 5.0 0.00 0.00 0.00 83 1014.7
20220704221306 80 143 1.0 2.0 0.00 0.00 0.00 83 1014.6
20220704220306 80 143 1.0 5.0 0.00 0.00 0.00 82 1014.4
20220704215806 80 143 1.0 5.0 0.00 0.00 0.00 82 1014.4
20220704214806 80 143 2.0 3.0 0.00 0.00 0.00 82 1014.4
20220704214306 80 143 1.0 3.0 0.00 0.00 0.00 82 1014.5
20220704212805 80 144 2.0 5.0 0.00 0.00 0.00 81 1014.3
20220704212305 80 144 3.0 5.0 0.00 0.00 0.00 81 1014.2
20220704210306 81 90 1.0 6.0 0.00 0.00 0.00 80 1014.1
20220704205805 81 119 4.0 6.0 0.00 0.00 0.00 80 1014.2
20220704205306 81 117 3.0 6.0 0.00 0.00 0.00 80 1014.2
20220704204806 81 117 3.0 5.0 0.00 0.00 0.00 80 1014.0
20220704204306 81 117 2.0 5.0 0.00 0.00 0.00 79 1013.9
20220704203806 81 117 4.0 7.0 0.00 0.00 0.00 79 1013.8
20220704203306 81 91 2.0 3.0 0.00 0.00 0.00 79 1013.6
20220704202806 81 91 1.0 5.0 0.00 0.00 0.00 79 1013.7
20220704201805 81 57 3.0 6.0 0.00 0.00 0.00 78 1013.5
20220704195805 81 103 2.0 5.0 0.00 0.00 0.00 76 1013.1
20220704194305 81 85 3.0 7.0 0.00 0.00 0.00 75 1013.0
20220704192806 82 107 2.0 6.0 0.00 0.00 0.00 75 1012.9
20220704192306 82 19 3.0 9.0 0.00 0.00 0.00 75 1012.9
20220704191806 82 110 6.0 8.0 0.00 0.00 0.00 75 1012.7
20220704191305 82 102 4.0 8.0 0.00 0.00 0.00 75 1012.6
20220704190806 82 102 5.0 12.0 0.00 0.00 0.00 76 1012.6
20220704185805 82 28 3.0 6.0 0.00 0.00 0.00 76 1012.7
20220704183806 82 25 4.0 8.0 0.00 0.00 0.00 77 1012.6
20220704182806 82 57 3.0 6.0 0.00 0.00 0.00 78 1012.4
20220704181805 82 41 5.0 10.0 0.00 0.00 0.00 78 1012.3
20220704180306 83 120 3.0 7.0 0.00 0.00 0.00 78 1012.2
20220704175806 83 41 4.0 8.0 0.00 0.00 0.00 78 1012.3
20220704174805 83 45 5.0 9.0 0.00 0.00 0.00 77 1012.1
20220704174305 83 42 6.0 10.0 0.00 0.00 0.00 76 1012.1
20220704173306 84 45 3.0 7.0 0.00 0.00 0.00 74 1012.0
20220704164305 85 102 3.0 10.0 0.00 0.00 0.00 73 1012.1
20220704163805 85 51 3.0 9.0 0.00 0.00 0.00 72 1012.1
20220704162305 86 54 4.0 10.0 0.00 0.00 0.00 72 1012.1
20220704160805 86 101 5.0 9.0 0.00 0.00 0.00 71 1012.3
20220704160305 86 107 5.0 12.0 0.00 0.00 0.00 72 1012.4
20220704155805 85 96 7.0 12.0 0.00 0.00 0.00 72 1012.4
20220704155306 85 112 8.0 12.0 0.00 0.00 0.00 72 1012.5
20220704154805 86 85 4.0 13.0 0.00 0.00 0.00 72 1012.5
20220704154305 86 50 6.0 13.0 0.00 0.00 0.00 72 1012.4
20220704153805 85 113 9.0 14.0 0.00 0.00 0.00 72 1012.4
20220704152805 86 103 6.0 18.0 0.00 0.00 0.00 70 1012.4
20220704151805 88 107 6.0 12.0 0.00 0.00 0.00 67 1012.6
20220704150805 89 95 5.0 12.0 0.00 0.00 0.00 63 1012.6
20220704150304 89 125 6.0 9.0 0.00 0.00 0.00 63 1012.5
20220704145805 88 98 8.0 13.0 0.00 0.00 0.00 63 1012.5
20220704145305 89 105 7.0 13.0 0.00 0.00 0.00 63 1012.6
20220704144305 89 109 8.0 13.0 0.00 0.00 0.00 62 1012.8
20220704143305 89 103 7.0 12.0 0.00 0.00 0.00 58 1012.6
20220704142804 89 98 5.0 13.0 0.00 0.00 0.00 56 1012.8
20220704142304 89 106 7.0 12.0 0.00 0.00 0.00 54 1012.9
20220704141305 89 97 5.0 9.0 0.00 0.00 0.00 53 1012.9
20220704140304 90 106 5.0 12.0 0.00 0.00 0.00 52 1012.9
20220704134804 90 108 7.0 14.0 0.00 0.00 0.00 51 1013.1
20220704132304 89 138 7.0 13.0 0.00 0.00 0.00 49 1013.2
20220704131304 89 116 8.0 14.0 0.00 0.00 0.00 46 1013.3
20220704125303 90 129 5.0 12.0 0.00 0.00 0.00 47 1013.6
20220704124304 90 134 6.0 12.0 0.00 0.00 0.00 46 1013.6
20220704123304 89 105 6.0 12.0 0.00 0.00 0.00 48 1013.9
20220704122304 90 133 7.0 12.0 0.00 0.00 0.00 47 1013.9
20220704114304 88 102 5.0 12.0 0.00 0.00 0.00 47 1014.1
20220704113803 88 103 7.0 12.0 0.00 0.00 0.00 49 1014.1
20220704113303 88 111 7.0 12.0 0.00 0.00 0.00 47 1014.3
20220704112803 88 110 6.0 14.0 0.00 0.00 0.00 48 1014.4
20220704111304 87 97 9.0 12.0 0.00 0.00 0.00 50 1014.4
20220704105803 87 70 4.0 12.0 0.00 0.00 0.00 52 1014.5
20220704104804 86 74 6.0 12.0 0.00 0.00 0.00 54 1014.5
20220704104303 86 97 4.0 8.0 0.00 0.00 0.00 54 1014.5
20220704103803 86 75 6.0 14.0 0.00 0.00 0.00 55 1014.6
20220704102303 87 82 5.0 9.0 0.00 0.00 0.00 56 1014.6
20220704101803 86 103 7.0 9.0 0.00 0.00 0.00 57 1014.6
20220704101303 86 96 6.0 8.0 0.00 0.00 0.00 57 1014.7
20220704095303 85 112 6.0 8.0 0.00 0.00 0.00 60 1014.8
20220704094803 85 117 5.0 9.0 0.00 0.00 0.00 62 1014.8
20220704094303 84 100 5.0 9.0 0.00 0.00 0.00 62 1014.8
20220704093803 84 72 5.0 12.0 0.00 0.00 0.00 61 1014.7
20220704092803 84 100 6.0 8.0 0.00 0.00 0.00 63 1014.7
20220704092303 84 135 5.0 8.0 0.00 0.00 0.00 66 1014.7
20220704091803 84 75 5.0 9.0 0.00 0.00 0.00 67 1014.7
20220704091303 85 114 3.0 7.0 0.00 0.00 0.00 64 1014.6
20220704090803 85 101 3.0 6.0 0.00 0.00 0.00 64 1014.6
20220704085303 84 139 6.0 8.0 0.00 0.00 0.00 61 1014.7
20220704084802 83 123 3.0 7.0 0.00 0.00 0.00 64 1014.7